»·PEaware :: N8252V KSAN-KSEE

N8252V :: KSAN-KSEE

FLIGHT INFORMATION

Flight Status: Arrived
Operator: Privately registered:
United States
More flights under this callsign
Pilot: C P J. (490)
Aircraft: PIPER PA-28 CHEROKEE ARCHER
(P28A)
More flights by this aircraft type
Origin: KSAN San Diego Intl-Lindbergh
United States
Destination: KSEE Gillespie
United States
More flights between these airports :: More routes between these airports
Route: +V66 BARET
File this flight plan on PilotEdge
Remarks:
Altitude:
(Current/Filed)
3,000ft
Speed:
(Current/Filed)
150kts
Departed: 08-Feb-15 09:30 AM
Arrived: 08-Feb-15 10:17 AM
Distance/Time
Traveled:
12nm/0:47
Distance/Time
To Go:
Arrived

Flight Plot

Page will automatically refresh every two minutes.

Flight plan parsing failed; only flown route is shown


Map Options




Map Legend


Flown Route
Filed Route
Departure Airport
Arrival Airport
Navaid (VOR, NDB)
Fix

Horizontal Profiles

Position Reports

Time Latitude Longitude Heading Altitude Ground
Speed
08-Feb-15 09:12 32.732425 -117.176635 194 20ft 0kts
08-Feb-15 09:13 32.732425 -117.176635 194 20ft 0kts
08-Feb-15 09:14 32.732425 -117.176635 194 20ft 0kts
08-Feb-15 09:15 32.732425 -117.176635 194 20ft 0kts
08-Feb-15 09:16 32.732425 -117.176635 194 20ft 0kts
08-Feb-15 09:17 32.732425 -117.176635 194 20ft 0kts
08-Feb-15 09:18 32.732425 -117.176635 194 20ft 0kts
08-Feb-15 09:19 32.732425 -117.176635 194 20ft 0kts
08-Feb-15 09:20 32.732425 -117.176635 194 20ft 0kts
08-Feb-15 09:21 32.732071 -117.176732 202 20ft 7kts
08-Feb-15 09:22 32.730945 -117.175493 134 20ft 0kts
08-Feb-15 09:23 32.730945 -117.175493 134 20ft 0kts
08-Feb-15 09:24 32.730346 -117.176387 289 17ft 19kts
08-Feb-15 09:25 32.737119 -117.200747 294 716ft 90kts
08-Feb-15 09:26 32.741115 -117.226309 272 1836ft 86kts
08-Feb-15 09:27 32.745477 -117.254886 281 2657ft 85kts
08-Feb-15 09:28 32.749244 -117.283277 281 3396ft 90kts
08-Feb-15 09:29 32.754021 -117.312688 281 4102ft 90kts
08-Feb-15 09:30 32.758918 -117.342306 281 4684ft 91kts
08-Feb-15 09:31 32.773127 -117.361919 9 5244ft 92kts
08-Feb-15 09:32 32.797068 -117.355876 11 5876ft 85kts
08-Feb-15 09:33 32.819022 -117.348825 43 6445ft 84kts
08-Feb-15 09:34 32.819696 -117.328636 99 7108ft 80kts
08-Feb-15 09:35 32.815147 -117.299183 100 7085ft 99kts
08-Feb-15 09:36 32.810175 -117.266871 100 7072ft 99kts
08-Feb-15 09:37 32.805241 -117.234770 100 7066ft 98kts
08-Feb-15 09:38 32.800341 -117.202795 100 7052ft 99kts
08-Feb-15 09:39 32.795119 -117.168821 100 6509ft 104kts
08-Feb-15 09:40 32.789982 -117.135619 100 5724ft 100kts
08-Feb-15 09:41 32.784861 -117.102980 100 4920ft 100kts
08-Feb-15 09:42 32.780333 -117.074559 100 4414ft 86kts
08-Feb-15 09:43 32.775765 -117.046219 99 3777ft 89kts
08-Feb-15 09:44 32.773015 -117.017393 94 3165ft 87kts
08-Feb-15 09:45 32.770712 -116.990673 94 3033ft 70kts
08-Feb-15 09:46 32.768438 -116.964400 94 3795ft 80kts
08-Feb-15 09:47 32.765807 -116.934113 94 4362ft 92kts
08-Feb-15 09:48 32.763404 -116.907100 94 4916ft 81kts
08-Feb-15 09:49 32.760729 -116.876908 95 5111ft 106kts
08-Feb-15 09:50 32.757658 -116.841606 95 4941ft 103kts
08-Feb-15 09:51 32.754964 -116.810516 95 4915ft 87kts
08-Feb-15 09:52 32.752641 -116.783866 95 4972ft 76kts
08-Feb-15 09:53 32.740850 -116.767993 189 4976ft 77kts
08-Feb-15 09:54 32.718213 -116.773441 191 5048ft 88kts
08-Feb-15 09:55 32.693128 -116.779809 191 5022ft 97kts
08-Feb-15 09:56 32.669695 -116.776278 106 4951ft 95kts
08-Feb-15 09:57 32.686856 -116.760497 13 5007ft 88kts
08-Feb-15 09:58 32.702316 -116.740988 73 5005ft 90kts
08-Feb-15 09:59 32.708384 -116.716457 73 4992ft 94kts
08-Feb-15 10:00 32.716039 -116.686492 61 4984ft 96kts
08-Feb-15 10:01 32.737243 -116.693910 312 4977ft 95kts
08-Feb-15 10:02 32.754937 -116.717367 312 4982ft 95kts
08-Feb-15 10:03 32.772716 -116.740927 312 4990ft 95kts
08-Feb-15 10:04 32.789103 -116.764793 299 5031ft 93kts
08-Feb-15 10:05 32.795649 -116.794891 280 4895ft 90kts
08-Feb-15 10:06 32.800529 -116.825062 283 4490ft 89kts
08-Feb-15 10:07 32.806539 -116.855024 284 3722ft 75kts
08-Feb-15 10:08 32.811034 -116.879153 279 2949ft 80kts
08-Feb-15 10:09 32.815707 -116.906082 286 2010ft 87kts
08-Feb-15 10:10 32.820720 -116.931946 283 1341ft 78kts
08-Feb-15 10:11 32.825075 -116.956876 282 673ft 71kts
08-Feb-15 10:12 32.828217 -116.974131 287 365ft 0kts
08-Feb-15 10:13 32.828031 -116.975707 234 362ft 14kts
08-Feb-15 10:14 32.826658 -116.975516 101 364ft 2kts
08-Feb-15 10:15 32.826073 -116.972309 94 370ft 17kts
08-Feb-15 10:16 32.821228 -116.971139 107 379ft 13kts
08-Feb-15 10:17 32.821131 -116.970320 226 380ft 0kts

Navigation Log

Ident Type
Flight plan parsing failed, navigation log unavailable